sensor_id;sensor_type;location;lat;lon;timestamp;pressure;altitude;pressure_sealevel;temperature;humidity
50854;BME280;44154;45.506;-122.806;2023-02-18T00:01:19;101497.75;;;24.75;32.63
50854;BME280;44154;45.506;-122.806;2023-02-18T00:03:46;101493.09;;;24.64;32.61
50854;BME280;44154;45.506;-122.806;2023-02-18T00:06:23;101480.56;;;24.56;32.96
50854;BME280;44154;45.506;-122.806;2023-02-18T00:08:51;101474.13;;;24.50;32.90
50854;BME280;44154;45.506;-122.806;2023-02-18T00:11:18;101479.50;;;24.45;33.09
50854;BME280;44154;45.506;-122.806;2023-02-18T00:13:53;101449.66;;;24.32;33.23
50854;BME280;44154;45.506;-122.806;2023-02-18T00:16:20;101462.63;;;24.36;33.05
50854;BME280;44154;45.506;-122.806;2023-02-18T00:18:47;101454.03;;;24.33;33.03
50854;BME280;44154;45.506;-122.806;2023-02-18T00:21:13;101452.25;;;24.27;33.20
50854;BME280;44154;45.506;-122.806;2023-02-18T00:23:40;101458.22;;;24.23;33.46
50854;BME280;44154;45.506;-122.806;2023-02-18T00:26:15;101455.09;;;24.20;33.43
50854;BME280;44154;45.506;-122.806;2023-02-18T00:28:42;101448.47;;;24.16;33.50
50854;BME280;44154;45.506;-122.806;2023-02-18T00:31:13;101449.16;;;24.11;33.62
50854;BME280;44154;45.506;-122.806;2023-02-18T00:33:40;101438.94;;;24.06;33.73
50854;BME280;44154;45.506;-122.806;2023-02-18T00:36:09;101432.25;;;24.02;33.70
50854;BME280;44154;45.506;-122.806;2023-02-18T00:38:36;101441.56;;;24.01;33.79
50854;BME280;44154;45.506;-122.806;2023-02-18T00:41:02;101430.34;;;23.91;34.07
50854;BME280;44154;45.506;-122.806;2023-02-18T00:43:29;101449.13;;;23.99;33.79
50854;BME280;44154;45.506;-122.806;2023-02-18T00:45:55;101439.66;;;24.02;33.98
50854;BME280;44154;45.506;-122.806;2023-02-18T00:48:22;101450.81;;;24.00;34.34
50854;BME280;44154;45.506;-122.806;2023-02-18T00:50:48;101438.22;;;23.99;34.41
50854;BME280;44154;45.506;-122.806;2023-02-18T00:53:14;101437.63;;;23.97;34.28
50854;BME280;44154;45.506;-122.806;2023-02-18T00:55:44;101428.31;;;23.86;34.50
50854;BME280;44154;45.506;-122.806;2023-02-18T00:58:13;101439.16;;;23.93;34.36
50854;BME280;44154;45.506;-122.806;2023-02-18T01:00:40;101451.75;;;23.94;34.25
50854;BME280;44154;45.506;-122.806;2023-02-18T01:03:06;101450.09;;;24.17;33.98
50854;BME280;44154;45.506;-122.806;2023-02-18T01:05:33;101455.50;;;24.71;33.50
50854;BME280;44154;45.506;-122.806;2023-02-18T01:07:59;101463.84;;;25.05;32.90
50854;BME280;44154;45.506;-122.806;2023-02-18T01:10:26;101471.00;;;25.06;32.82
50854;BME280;44154;45.506;-122.806;2023-02-18T01:12:52;101471.66;;;24.84;32.42
50854;BME280;44154;45.506;-122.806;2023-02-18T01:15:19;101498.44;;;24.70;33.05
50854;BME280;44154;45.506;-122.806;2023-02-18T01:17:45;101477.59;;;24.34;33.25
50854;BME280;44154;45.506;-122.806;2023-02-18T01:20:13;101500.31;;;24.22;33.26
50854;BME280;44154;45.506;-122.806;2023-02-18T01:22:40;101488.38;;;24.05;33.67
50854;BME280;44154;45.506;-122.806;2023-02-18T01:25:08;101484.44;;;23.89;33.82
50854;BME280;44154;45.506;-122.806;2023-02-18T01:27:34;101486.63;;;23.80;34.06
50854;BME280;44154;45.506;-122.806;2023-02-18T01:30:02;101488.00;;;23.71;34.17
50854;BME280;44154;45.506;-122.806;2023-02-18T01:32:28;101486.22;;;23.65;34.21
50854;BME280;44154;45.506;-122.806;2023-02-18T01:34:54;101475.84;;;23.55;34.48
50854;BME280;44154;45.506;-122.806;2023-02-18T01:37:20;101472.53;;;23.53;34.41
50854;BME280;44154;45.506;-122.806;2023-02-18T01:39:47;101477.59;;;23.49;34.60
50854;BME280;44154;45.506;-122.806;2023-02-18T01:42:21;101475.94;;;23.48;34.57
50854;BME280;44154;45.506;-122.806;2023-02-18T01:44:48;101478.91;;;23.77;34.31
50854;BME280;44154;45.506;-122.806;2023-02-18T01:47:15;101478.41;;;24.34;33.35
50854;BME280;44154;45.506;-122.806;2023-02-18T01:49:42;101473.19;;;24.80;32.68
50854;BME280;44154;45.506;-122.806;2023-02-18T01:52:15;101477.00;;;24.79;32.31
50854;BME280;44154;45.506;-122.806;2023-02-18T01:54:48;101477.59;;;24.57;32.86
50854;BME280;44154;45.506;-122.806;2023-02-18T01:57:16;101478.19;;;24.36;33.21
50854;BME280;44154;45.506;-122.806;2023-02-18T01:59:53;101467.72;;;24.21;33.70
50854;BME280;44154;45.506;-122.806;2023-02-18T02:02:24;101464.03;;;24.15;33.68
50854;BME280;44154;45.506;-122.806;2023-02-18T02:04:51;101450.25;;;24.10;33.81
50854;BME280;44154;45.506;-122.806;2023-02-18T02:07:19;101440.34;;;23.97;34.12
50854;BME280;44154;45.506;-122.806;2023-02-18T02:09:47;101465.94;;;24.03;34.07
50854;BME280;44154;45.506;-122.806;2023-02-18T02:12:55;101465.78;;;23.98;34.31
50854;BME280;44154;45.506;-122.806;2023-02-18T02:15:32;101467.56;;;23.92;34.26
50854;BME280;44154;45.506;-122.806;2023-02-18T02:26:41;101469.53;;;23.85;34.28
50854;BME280;44154;45.506;-122.806;2023-02-18T02:34:44;101470.22;;;23.80;34.23
50854;BME280;44154;45.506;-122.806;2023-02-18T02:46:35;101502.38;;;23.36;35.07
50854;BME280;44154;45.506;-122.806;2023-02-18T02:52:05;101496.63;;;23.26;35.22
50854;BME280;44154;45.506;-122.806;2023-02-18T02:54:32;101488.91;;;23.23;35.32
50854;BME280;44154;45.506;-122.806;2023-02-18T03:00:03;101481.00;;;23.14;35.43
50854;BME280;44154;45.506;-122.806;2023-02-18T03:08:50;101454.81;;;23.07;35.71
50854;BME280;44154;45.506;-122.806;2023-02-18T03:11:22;101452.91;;;23.07;35.74
50854;BME280;44154;45.506;-122.806;2023-02-18T03:16:34;101435.03;;;23.11;36.16
50854;BME280;44154;45.506;-122.806;2023-02-18T03:21:38;101434.00;;;23.12;36.07
50854;BME280;44154;45.506;-122.806;2023-02-18T03:24:22;101436.75;;;23.06;36.26
50854;BME280;44154;45.506;-122.806;2023-02-18T03:26:52;101440.56;;;23.04;36.75
50854;BME280;44154;45.506;-122.806;2023-02-18T03:29:21;101434.84;;;23.06;37.02
50854;BME280;44154;45.506;-122.806;2023-02-18T03:32:02;101436.31;;;23.09;37.48
50854;BME280;44154;45.506;-122.806;2023-02-18T03:34:32;101421.97;;;23.13;39.17
50854;BME280;44154;45.506;-122.806;2023-02-18T03:37:01;101453.22;;;23.78;38.03
50854;BME280;44154;45.506;-122.806;2023-02-18T03:39:32;101462.00;;;24.34;37.01
50854;BME280;44154;45.506;-122.806;2023-02-18T03:41:59;101470.25;;;24.46;37.29
50854;BME280;44154;45.506;-122.806;2023-02-18T03:44:25;101475.69;;;24.34;36.32
50854;BME280;44154;45.506;-122.806;2023-02-18T03:46:52;101475.81;;;24.16;37.03
50854;BME280;44154;45.506;-122.806;2023-02-18T03:49:18;101459.06;;;23.82;36.88
50854;BME280;44154;45.506;-122.806;2023-02-18T03:51:44;101467.59;;;23.73;37.17
50854;BME280;44154;45.506;-122.806;2023-02-18T03:54:12;101472.72;;;23.70;37.25
50854;BME280;44154;45.506;-122.806;2023-02-18T03:56:40;101449.75;;;24.01;36.83
50854;BME280;44154;45.506;-122.806;2023-02-18T03:59:07;101455.00;;;24.38;36.29
50854;BME280;44154;45.506;-122.806;2023-02-18T04:01:34;101465.94;;;24.50;36.08
50854;BME280;44154;45.506;-122.806;2023-02-18T04:04:00;101462.84;;;24.35;36.29
50854;BME280;44154;45.506;-122.806;2023-02-18T04:06:27;101462.34;;;24.14;36.50
50854;BME280;44154;45.506;-122.806;2023-02-18T04:08:54;101463.53;;;23.95;36.64
50854;BME280;44154;45.506;-122.806;2023-02-18T04:11:20;101475.09;;;23.78;36.88
50854;BME280;44154;45.506;-122.806;2023-02-18T04:13:46;101461.50;;;23.60;37.07
50854;BME280;44154;45.506;-122.806;2023-02-18T04:16:13;101461.59;;;23.53;37.29
50854;BME280;44154;45.506;-122.806;2023-02-18T04:18:39;101451.59;;;23.47;37.56
50854;BME280;44154;45.506;-122.806;2023-02-18T04:21:06;101450.75;;;23.46;37.49
50854;BME280;44154;45.506;-122.806;2023-02-18T04:23:32;101446.50;;;23.50;37.56
50854;BME280;44154;45.506;-122.806;2023-02-18T04:25:58;101448.66;;;23.90;37.12
50854;BME280;44154;45.506;-122.806;2023-02-18T04:28:24;101434.78;;;24.16;36.82
50854;BME280;44154;45.506;-122.806;2023-02-18T04:30:50;101434.66;;;24.34;36.15
50854;BME280;44154;45.506;-122.806;2023-02-18T04:33:16;101429.53;;;24.38;36.04
50854;BME280;44154;45.506;-122.806;2023-02-18T04:35:43;101430.97;;;24.29;35.90
50854;BME280;44154;45.506;-122.806;2023-02-18T04:38:10;101435.00;;;24.14;36.06
50854;BME280;44154;45.506;-122.806;2023-02-18T04:40:36;101440.69;;;24.01;36.25
50854;BME280;44154;45.506;-122.806;2023-02-18T04:43:03;101430.91;;;23.81;36.39
50854;BME280;44154;45.506;-122.806;2023-02-18T04:45:29;101456.09;;;23.83;36.48
50854;BME280;44154;45.506;-122.806;2023-02-18T04:47:55;101468.78;;;23.78;36.42
50854;BME280;44154;45.506;-122.806;2023-02-18T04:50:21;101473.28;;;23.72;36.40
50854;BME280;44154;45.506;-122.806;2023-02-18T04:52:48;101469.72;;;23.60;36.27
50854;BME280;44154;45.506;-122.806;2023-02-18T04:55:14;101478.97;;;23.59;36.59
50854;BME280;44154;45.506;-122.806;2023-02-18T04:57:40;101480.75;;;23.65;36.89
50854;BME280;44154;45.506;-122.806;2023-02-18T05:00:08;101483.25;;;23.97;36.64
50854;BME280;44154;45.506;-122.806;2023-02-18T05:02:35;101466.03;;;24.20;36.11
50854;BME280;44154;45.506;-122.806;2023-02-18T05:05:02;101482.25;;;24.45;35.48
50854;BME280;44154;45.506;-122.806;2023-02-18T05:07:28;101487.09;;;24.43;35.38
50854;BME280;44154;45.506;-122.806;2023-02-18T05:09:54;101489.03;;;24.31;35.48
50854;BME280;44154;45.506;-122.806;2023-02-18T05:12:20;101493.03;;;24.16;35.64
50854;BME280;44154;45.506;-122.806;2023-02-18T05:14:46;101481.38;;;23.97;35.84
50854;BME280;44154;45.506;-122.806;2023-02-18T05:17:12;101491.44;;;23.97;35.91
50854;BME280;44154;45.506;-122.806;2023-02-18T05:19:39;101498.09;;;23.89;36.03
50854;BME280;44154;45.506;-122.806;2023-02-18T05:22:05;101497.09;;;23.83;35.91
50854;BME280;44154;45.506;-122.806;2023-02-18T05:24:31;101496.59;;;23.75;36.00
50854;BME280;44154;45.506;-122.806;2023-02-18T05:26:57;101488.47;;;23.68;36.11
50854;BME280;44154;45.506;-122.806;2023-02-18T05:29:23;101493.84;;;23.63;36.26
50854;BME280;44154;45.506;-122.806;2023-02-18T05:31:49;101491.22;;;23.68;37.22
50854;BME280;44154;45.506;-122.806;2023-02-18T05:34:16;101490.66;;;23.78;36.99
50854;BME280;44154;45.506;-122.806;2023-02-18T05:36:42;101487.59;;;23.86;36.77
50854;BME280;44154;45.506;-122.806;2023-02-18T05:39:08;101487.50;;;23.93;35.98
50854;BME280;44154;45.506;-122.806;2023-02-18T05:41:36;101491.81;;;23.88;36.15
50854;BME280;44154;45.506;-122.806;2023-02-18T05:44:02;101485.06;;;23.72;36.23
50854;BME280;44154;45.506;-122.806;2023-02-18T05:46:47;101473.97;;;23.55;36.58
50854;BME280;44154;45.506;-122.806;2023-02-18T05:49:14;101480.94;;;23.51;36.54
50854;BME280;44154;45.506;-122.806;2023-02-18T05:51:40;101480.81;;;23.46;36.48
50854;BME280;44154;45.506;-122.806;2023-02-18T05:54:06;101459.38;;;23.31;36.82
50854;BME280;44154;45.506;-122.806;2023-02-18T05:56:32;101464.00;;;23.31;36.93
50854;BME280;44154;45.506;-122.806;2023-02-18T05:58:58;101467.28;;;23.21;36.88
50854;BME280;44154;45.506;-122.806;2023-02-18T06:01:24;101475.53;;;23.33;37.65
50854;BME280;44154;45.506;-122.806;2023-02-18T06:03:50;101453.94;;;23.43;37.68
50854;BME280;44154;45.506;-122.806;2023-02-18T06:06:17;101468.16;;;23.64;37.06
50854;BME280;44154;45.506;-122.806;2023-02-18T06:08:43;101480.03;;;23.88;36.46
50854;BME280;44154;45.506;-122.806;2023-02-18T06:11:09;101477.97;;;23.83;36.41
50854;BME280;44154;45.506;-122.806;2023-02-18T06:13:35;101478.75;;;23.72;36.16
50854;BME280;44154;45.506;-122.806;2023-02-18T06:16:01;101484.69;;;23.69;36.54
50854;BME280;44154;45.506;-122.806;2023-02-18T06:18:27;101479.44;;;23.55;36.67
50854;BME280;44154;45.506;-122.806;2023-02-18T06:20:54;101488.53;;;23.49;36.64
50854;BME280;44154;45.506;-122.806;2023-02-18T06:23:20;101487.03;;;23.35;36.78
50854;BME280;44154;45.506;-122.806;2023-02-18T06:25:50;101499.06;;;23.34;36.90
50854;BME280;44154;45.506;-122.806;2023-02-18T06:28:16;101507.72;;;23.31;37.00
50854;BME280;44154;45.506;-122.806;2023-02-18T06:30:44;101501.03;;;23.27;37.06
50854;BME280;44154;45.506;-122.806;2023-02-18T06:33:10;101499.34;;;23.44;37.56
50854;BME280;44154;45.506;-122.806;2023-02-18T06:35:36;101490.63;;;23.66;37.39
50854;BME280;44154;45.506;-122.806;2023-02-18T06:38:03;101495.13;;;23.90;36.75
50854;BME280;44154;45.506;-122.806;2023-02-18T06:40:29;101489.91;;;24.01;36.33
50854;BME280;44154;45.506;-122.806;2023-02-18T06:42:55;101499.78;;;24.02;36.50
50854;BME280;44154;45.506;-122.806;2023-02-18T06:45:21;101496.56;;;23.93;36.54
50854;BME280;44154;45.506;-122.806;2023-02-18T06:47:48;101498.78;;;23.84;36.52
50854;BME280;44154;45.506;-122.806;2023-02-18T06:50:14;101483.25;;;23.66;36.90
50854;BME280;44154;45.506;-122.806;2023-02-18T06:52:40;101479.66;;;23.54;36.99
50854;BME280;44154;45.506;-122.806;2023-02-18T06:55:07;101484.00;;;23.43;37.27
50854;BME280;44154;45.506;-122.806;2023-02-18T06:57:34;101485.63;;;23.32;37.42
50854;BME280;44154;45.506;-122.806;2023-02-18T07:00:00;101489.66;;;23.30;37.21
50854;BME280;44154;45.506;-122.806;2023-02-18T07:02:27;101489.66;;;23.30;37.72
50854;BME280;44154;45.506;-122.806;2023-02-18T07:04:53;101482.50;;;23.29;37.71
50854;BME280;44154;45.506;-122.806;2023-02-18T07:07:19;101468.25;;;23.27;37.50
50854;BME280;44154;45.506;-122.806;2023-02-18T07:09:45;101464.38;;;23.34;37.00
50854;BME280;44154;45.506;-122.806;2023-02-18T07:12:11;101453.09;;;23.31;36.77
50854;BME280;44154;45.506;-122.806;2023-02-18T07:14:38;101471.16;;;23.44;36.78
50854;BME280;44154;45.506;-122.806;2023-02-18T07:17:04;101454.19;;;23.42;36.96
50854;BME280;44154;45.506;-122.806;2023-02-18T07:19:30;101463.94;;;23.49;36.98
50854;BME280;44154;45.506;-122.806;2023-02-18T07:21:56;101461.59;;;23.53;37.11
50854;BME280;44154;45.506;-122.806;2023-02-18T07:24:22;101446.22;;;23.40;37.10
50854;BME280;44154;45.506;-122.806;2023-02-18T07:26:49;101467.28;;;23.51;37.17
50854;BME280;44154;45.506;-122.806;2023-02-18T07:29:15;101466.66;;;23.49;37.20
50854;BME280;44154;45.506;-122.806;2023-02-18T07:31:41;101457.50;;;23.44;37.19
50854;BME280;44154;45.506;-122.806;2023-02-18T07:34:07;101453.94;;;23.43;37.34
50854;BME280;44154;45.506;-122.806;2023-02-18T07:36:33;101447.91;;;23.41;37.24
50854;BME280;44154;45.506;-122.806;2023-02-18T07:38:59;101453.34;;;23.41;37.43
50854;BME280;44154;45.506;-122.806;2023-02-18T07:41:25;101458.19;;;23.39;37.33
50854;BME280;44154;45.506;-122.806;2023-02-18T07:43:52;101459.06;;;23.40;37.31
50854;BME280;44154;45.506;-122.806;2023-02-18T07:46:18;101462.03;;;23.38;37.32
50854;BME280;44154;45.506;-122.806;2023-02-18T07:48:44;101471.28;;;23.37;37.27
50854;BME280;44154;45.506;-122.806;2023-02-18T07:51:11;101488.72;;;23.36;37.27
50854;BME280;44154;45.506;-122.806;2023-02-18T07:53:38;101465.13;;;23.23;37.26
50854;BME280;44154;45.506;-122.806;2023-02-18T07:56:05;101465.19;;;23.35;36.99
50854;BME280;44154;45.506;-122.806;2023-02-18T07:58:34;101459.13;;;23.33;36.97
50854;BME280;44154;45.506;-122.806;2023-02-18T08:01:04;101470.53;;;23.30;36.86
50854;BME280;44154;45.506;-122.806;2023-02-18T08:03:32;101460.97;;;23.20;36.84
50854;BME280;44154;45.506;-122.806;2023-02-18T08:06:00;101466.13;;;23.29;36.98
50854;BME280;44154;45.506;-122.806;2023-02-18T08:08:29;101471.00;;;23.27;36.79
50854;BME280;44154;45.506;-122.806;2023-02-18T08:10:57;101482.16;;;23.25;36.76
50854;BME280;44154;45.506;-122.806;2023-02-18T08:13:24;101488.66;;;23.24;36.73
50854;BME280;44154;45.506;-122.806;2023-02-18T08:15:56;101488.91;;;23.23;36.69
50854;BME280;44154;45.506;-122.806;2023-02-18T08:18:23;101489.13;;;23.21;36.95
50854;BME280;44154;45.506;-122.806;2023-02-18T08:20:50;101491.00;;;23.20;36.91
50854;BME280;44154;45.506;-122.806;2023-02-18T08:23:20;101484.72;;;23.20;37.17
50854;BME280;44154;45.506;-122.806;2023-02-18T08:25:52;101482.56;;;23.22;37.45
50854;BME280;44154;45.506;-122.806;2023-02-18T08:28:19;101485.13;;;23.54;39.89
50854;BME280;44154;45.506;-122.806;2023-02-18T08:30:47;101483.38;;;23.90;38.11
50854;BME280;44154;45.506;-122.806;2023-02-18T08:33:14;101477.22;;;24.18;37.64
50854;BME280;44154;45.506;-122.806;2023-02-18T08:35:41;101461.28;;;24.03;40.34
50854;BME280;44154;45.506;-122.806;2023-02-18T08:38:07;101478.63;;;23.97;39.53
50854;BME280;44154;45.506;-122.806;2023-02-18T08:40:34;101473.91;;;23.74;39.67
50854;BME280;44154;45.506;-122.806;2023-02-18T08:43:00;101476.34;;;23.64;38.58
50854;BME280;44154;45.506;-122.806;2023-02-18T08:45:26;101469.78;;;23.53;38.12
50854;BME280;44154;45.506;-122.806;2023-02-18T08:47:52;101443.56;;;23.33;38.87
50854;BME280;44154;45.506;-122.806;2023-02-18T08:50:19;101450.47;;;23.36;39.16
50854;BME280;44154;45.506;-122.806;2023-02-18T08:52:46;101437.59;;;23.25;39.59
50854;BME280;44154;45.506;-122.806;2023-02-18T08:55:12;101436.38;;;23.20;39.57
50854;BME280;44154;45.506;-122.806;2023-02-18T08:57:39;101434.75;;;23.19;38.38
50854;BME280;44154;45.506;-122.806;2023-02-18T09:00:05;101427.84;;;23.17;38.18
50854;BME280;44154;45.506;-122.806;2023-02-18T09:02:32;101429.13;;;23.14;38.04
50854;BME280;44154;45.506;-122.806;2023-02-18T09:04:58;101442.19;;;23.12;37.77
50854;BME280;44154;45.506;-122.806;2023-02-18T09:07:24;101445.78;;;23.06;37.78
50854;BME280;44154;45.506;-122.806;2023-02-18T09:09:50;101441.16;;;23.07;37.49
50854;BME280;44154;45.506;-122.806;2023-02-18T09:12:16;101435.31;;;23.03;37.45
50854;BME280;44154;45.506;-122.806;2023-02-18T09:14:42;101431.38;;;22.99;37.29
50854;BME280;44154;45.506;-122.806;2023-02-18T09:17:09;101424.13;;;23.11;38.35
50854;BME280;44154;45.506;-122.806;2023-02-18T09:19:35;101414.75;;;23.49;39.51
50854;BME280;44154;45.506;-122.806;2023-02-18T09:22:01;101412.06;;;23.92;37.67
50854;BME280;44154;45.506;-122.806;2023-02-18T09:24:27;101411.56;;;24.18;37.36
50854;BME280;44154;45.506;-122.806;2023-02-18T09:26:53;101409.09;;;24.17;37.85
50854;BME280;44154;45.506;-122.806;2023-02-18T09:29:20;101406.22;;;24.00;38.88
50854;BME280;44154;45.506;-122.806;2023-02-18T09:31:46;101405.22;;;23.82;39.30
50854;BME280;44154;45.506;-122.806;2023-02-18T09:34:12;101403.19;;;23.66;39.49
50854;BME280;44154;45.506;-122.806;2023-02-18T09:36:39;101402.78;;;23.50;39.89
50854;BME280;44154;45.506;-122.806;2023-02-18T09:39:05;101406.28;;;23.39;39.93
50854;BME280;44154;45.506;-122.806;2023-02-18T09:41:47;101402.47;;;23.28;40.21
50854;BME280;44154;45.506;-122.806;2023-02-18T09:44:39;101400.28;;;23.18;40.06
50854;BME280;44154;45.506;-122.806;2023-02-18T09:47:33;101395.75;;;23.12;40.20
50854;BME280;44154;45.506;-122.806;2023-02-18T09:52:35;101384.53;;;23.02;40.11
50854;BME280;44154;45.506;-122.806;2023-02-18T09:55:31;101385.44;;;22.96;40.42
50854;BME280;44154;45.506;-122.806;2023-02-18T09:58:16;101381.88;;;22.95;40.40
50854;BME280;44154;45.506;-122.806;2023-02-18T10:01:11;101396.00;;;22.92;39.99
50854;BME280;44154;45.506;-122.806;2023-02-18T10:03:41;101407.16;;;22.91;40.05
50854;BME280;44154;45.506;-122.806;2023-02-18T10:06:30;101407.59;;;22.88;39.77
50854;BME280;44154;45.506;-122.806;2023-02-18T10:09:01;101408.03;;;23.03;38.72
50854;BME280;44154;45.506;-122.806;2023-02-18T10:11:40;101412.97;;;23.43;39.18
50854;BME280;44154;45.506;-122.806;2023-02-18T10:14:14;101395.72;;;23.73;37.64
50854;BME280;44154;45.506;-122.806;2023-02-18T10:16:42;101420.84;;;24.05;37.63
50854;BME280;44154;45.506;-122.806;2023-02-18T10:19:33;101423.00;;;23.92;38.07
50854;BME280;44154;45.506;-122.806;2023-02-18T10:22:03;101404.84;;;23.67;38.54
50854;BME280;44154;45.506;-122.806;2023-02-18T10:24:47;101421.94;;;23.62;38.57
50854;BME280;44154;45.506;-122.806;2023-02-18T10:29:48;101422.22;;;23.42;38.76
50854;BME280;44154;45.506;-122.806;2023-02-18T10:42:51;101385.13;;;23.04;39.30
50854;BME280;44154;45.506;-122.806;2023-02-18T10:51:33;101384.69;;;22.89;38.74
50854;BME280;44154;45.506;-122.806;2023-02-18T10:54:00;101386.81;;;22.86;39.23
50854;BME280;44154;45.506;-122.806;2023-02-18T10:56:39;101393.16;;;23.17;39.61
50854;BME280;44154;45.506;-122.806;2023-02-18T10:59:19;101382.84;;;23.62;38.34
50854;BME280;44154;45.506;-122.806;2023-02-18T11:01:54;101368.19;;;23.86;36.97
50854;BME280;44154;45.506;-122.806;2023-02-18T11:04:33;101380.69;;;24.06;36.20
50854;BME280;44154;45.506;-122.806;2023-02-18T11:07:20;101384.47;;;23.93;35.96
50854;BME280;44154;45.506;-122.806;2023-02-18T11:09:51;101391.44;;;23.77;35.88
50854;BME280;44154;45.506;-122.806;2023-02-18T11:15:16;101382.69;;;23.45;36.27
50854;BME280;44154;45.506;-122.806;2023-02-18T11:17:45;101370.84;;;23.20;36.45
50854;BME280;44154;45.506;-122.806;2023-02-18T11:20:22;101382.22;;;23.17;36.68
50854;BME280;44154;45.506;-122.806;2023-02-18T11:22:50;101365.63;;;23.00;36.55
50854;BME280;44154;45.506;-122.806;2023-02-18T11:25:22;101374.50;;;22.96;36.54
50854;BME280;44154;45.506;-122.806;2023-02-18T11:27:54;101362.25;;;22.86;36.58
50854;BME280;44154;45.506;-122.806;2023-02-18T11:30:34;101377.34;;;22.89;36.80
50854;BME280;44154;45.506;-122.806;2023-02-18T11:33:08;101376.72;;;22.87;37.71
50854;BME280;44154;45.506;-122.806;2023-02-18T11:35:35;101377.72;;;22.93;40.87
50854;BME280;44154;45.506;-122.806;2023-02-18T11:38:12;101375.72;;;23.00;40.65
50854;BME280;44154;45.506;-122.806;2023-02-18T11:40:42;101374.81;;;23.36;39.17
50854;BME280;44154;45.506;-122.806;2023-02-18T11:43:14;101370.69;;;23.46;38.05
50854;BME280;44154;45.506;-122.806;2023-02-18T11:45:42;101359.38;;;23.42;37.72
50854;BME280;44154;45.506;-122.806;2023-02-18T11:48:16;101353.44;;;23.33;37.95
50854;BME280;44154;45.506;-122.806;2023-02-18T11:50:44;101346.88;;;23.23;38.26
50854;BME280;44154;45.506;-122.806;2023-02-18T11:53:32;101347.19;;;23.14;38.48
50854;BME280;44154;45.506;-122.806;2023-02-18T11:56:02;101363.28;;;23.04;38.69
50854;BME280;44154;45.506;-122.806;2023-02-18T11:58:37;101360.63;;;22.97;38.82
50854;BME280;44154;45.506;-122.806;2023-02-18T12:01:34;101361.56;;;22.91;39.38
50854;BME280;44154;45.506;-122.806;2023-02-18T12:04:20;101358.38;;;22.94;41.81
50854;BME280;44154;45.506;-122.806;2023-02-18T12:07:38;101364.22;;;23.16;40.86
50854;BME280;44154;45.506;-122.806;2023-02-18T12:12:25;101367.88;;;23.52;39.34
50854;BME280;44154;45.506;-122.806;2023-02-18T12:14:56;101382.59;;;23.51;39.36
50854;BME280;44154;45.506;-122.806;2023-02-18T12:25:28;101340.97;;;23.07;39.50
50854;BME280;44154;45.506;-122.806;2023-02-18T12:28:15;101339.41;;;22.99;39.14
50854;BME280;44154;45.506;-122.806;2023-02-18T12:30:59;101330.72;;;22.91;39.52
50854;BME280;44154;45.506;-122.806;2023-02-18T12:36:36;101320.13;;;23.13;40.94
50854;BME280;44154;45.506;-122.806;2023-02-18T12:42:36;101331.16;;;23.60;39.25
50854;BME280;44154;45.506;-122.806;2023-02-18T13:04:51;101356.09;;;22.91;40.91
50854;BME280;44154;45.506;-122.806;2023-02-18T13:13:15;101320.00;;;23.62;38.77
50854;BME280;44154;45.506;-122.806;2023-02-18T13:18:22;101325.56;;;23.43;39.04
50854;BME280;44154;45.506;-122.806;2023-02-18T13:20:57;101323.50;;;23.27;39.17
50854;BME280;44154;45.506;-122.806;2023-02-18T13:23:28;101342.78;;;23.13;39.38
50854;BME280;44154;45.506;-122.806;2023-02-18T13:25:58;101330.84;;;22.96;39.44
50854;BME280;44154;45.506;-122.806;2023-02-18T13:28:57;101335.56;;;22.89;39.65
50854;BME280;44154;45.506;-122.806;2023-02-18T13:31:45;101339.44;;;22.81;39.68
50854;BME280;44154;45.506;-122.806;2023-02-18T13:39:25;101318.66;;;23.10;40.28
50854;BME280;44154;45.506;-122.806;2023-02-18T13:42:22;101343.63;;;23.44;39.10
50854;BME280;44154;45.506;-122.806;2023-02-18T13:47:41;101346.47;;;23.49;38.72
50854;BME280;44154;45.506;-122.806;2023-02-18T13:58:20;101352.31;;;22.92;39.37
50854;BME280;44154;45.506;-122.806;2023-02-18T14:00:55;101352.16;;;22.87;39.44
50854;BME280;44154;45.506;-122.806;2023-02-18T14:06:22;101355.06;;;22.74;39.43
50854;BME280;44154;45.506;-122.806;2023-02-18T14:08:50;101329.97;;;22.83;40.39
50854;BME280;44154;45.506;-122.806;2023-02-18T14:13:48;101332.75;;;23.26;39.30
50854;BME280;44154;45.506;-122.806;2023-02-18T14:16:18;101341.00;;;23.49;38.46
50854;BME280;44154;45.506;-122.806;2023-02-18T14:37:15;101307.84;;;22.73;39.40
50854;BME280;44154;45.506;-122.806;2023-02-18T14:48:24;101329.16;;;23.55;38.88
50854;BME280;44154;45.506;-122.806;2023-02-18T14:50:56;101321.31;;;23.71;38.36
50854;BME280;44154;45.506;-122.806;2023-02-18T14:53:25;101326.13;;;23.87;37.70
50854;BME280;44154;45.506;-122.806;2023-02-18T14:56:03;101328.91;;;23.81;37.40
50854;BME280;44154;45.506;-122.806;2023-02-18T15:03:41;101328.25;;;23.31;38.36
50854;BME280;44154;45.506;-122.806;2023-02-18T15:06:33;101325.50;;;23.19;38.53
50854;BME280;44154;45.506;-122.806;2023-02-18T15:09:02;101330.50;;;23.23;39.29
50854;BME280;44154;45.506;-122.806;2023-02-18T15:12:04;101341.34;;;23.41;38.97
50854;BME280;44154;45.506;-122.806;2023-02-18T15:14:40;101331.50;;;23.64;38.63
50854;BME280;44154;45.506;-122.806;2023-02-18T15:17:12;101332.16;;;23.89;37.67
50854;BME280;44154;45.506;-122.806;2023-02-18T15:19:40;101342.50;;;23.99;37.29